sensor_id;sensor_type;location;lat;lon;timestamp;P1;durP1;ratioP1;P2;durP2;ratioP2
17761;SDS011;9005;48.838;10.112;2024-02-16T00:00:22;3.70;;;1.40;;
17761;SDS011;9005;48.838;10.112;2024-02-16T00:02:49;2.30;;;1.50;;
17761;SDS011;9005;48.838;10.112;2024-02-16T00:05:16;4.70;;;1.60;;
17761;SDS011;9005;48.838;10.112;2024-02-16T00:07:43;1.77;;;1.67;;
17761;SDS011;9005;48.838;10.112;2024-02-16T00:10:10;3.20;;;1.45;;
17761;SDS011;9005;48.838;10.112;2024-02-16T00:12:38;2.67;;;1.80;;
17761;SDS011;9005;48.838;10.112;2024-02-16T00:15:06;4.22;;;1.90;;
17761;SDS011;9005;48.838;10.112;2024-02-16T00:17:35;2.92;;;1.42;;
17761;SDS011;9005;48.838;10.112;2024-02-16T00:20:03;2.88;;;1.52;;
17761;SDS011;9005;48.838;10.112;2024-02-16T00:22:32;1.30;;;1.20;;
17761;SDS011;9005;48.838;10.112;2024-02-16T00:24:59;1.63;;;1.20;;
17761;SDS011;9005;48.838;10.112;2024-02-16T00:27:25;1.83;;;1.70;;
17761;SDS011;9005;48.838;10.112;2024-02-16T00:29:52;2.65;;;2.03;;
17761;SDS011;9005;48.838;10.112;2024-02-16T00:32:20;5.05;;;1.60;;
17761;SDS011;9005;48.838;10.112;2024-02-16T00:34:49;1.45;;;1.35;;
17761;SDS011;9005;48.838;10.112;2024-02-16T00:37:17;2.53;;;1.50;;
17761;SDS011;9005;48.838;10.112;2024-02-16T00:39:43;2.92;;;1.95;;
17761;SDS011;9005;48.838;10.112;2024-02-16T00:42:10;4.25;;;2.25;;
17761;SDS011;9005;48.838;10.112;2024-02-16T00:44:37;3.92;;;1.60;;
17761;SDS011;9005;48.838;10.112;2024-02-16T00:47:04;1.55;;;1.38;;
17761;SDS011;9005;48.838;10.112;2024-02-16T00:49:32;1.45;;;1.30;;
17761;SDS011;9005;48.838;10.112;2024-02-16T00:51:59;1.13;;;1.02;;
17761;SDS011;9005;48.838;10.112;2024-02-16T00:54:26;3.15;;;1.60;;
17761;SDS011;9005;48.838;10.112;2024-02-16T00:56:53;2.88;;;1.02;;
17761;SDS011;9005;48.838;10.112;2024-02-16T00:59:20;1.20;;;1.10;;
17761;SDS011;9005;48.838;10.112;2024-02-16T01:01:47;1.85;;;1.25;;
17761;SDS011;9005;48.838;10.112;2024-02-16T01:04:14;2.83;;;1.02;;
17761;SDS011;9005;48.838;10.112;2024-02-16T01:06:42;2.83;;;1.10;;
17761;SDS011;9005;48.838;10.112;2024-02-16T01:09:09;3.28;;;1.50;;
17761;SDS011;9005;48.838;10.112;2024-02-16T01:11:38;1.52;;;1.30;;
17761;SDS011;9005;48.838;10.112;2024-02-16T01:14:06;1.75;;;1.45;;
17761;SDS011;9005;48.838;10.112;2024-02-16T01:16:33;1.73;;;1.05;;
17761;SDS011;9005;48.838;10.112;2024-02-16T01:19:00;3.50;;;1.30;;
17761;SDS011;9005;48.838;10.112;2024-02-16T01:21:27;1.85;;;1.30;;
17761;SDS011;9005;48.838;10.112;2024-02-16T01:23:55;2.25;;;1.55;;
17761;SDS011;9005;48.838;10.112;2024-02-16T01:26:24;1.65;;;1.27;;
17761;SDS011;9005;48.838;10.112;2024-02-16T01:28:51;2.42;;;1.17;;
17761;SDS011;9005;48.838;10.112;2024-02-16T01:31:17;2.25;;;1.00;;
17761;SDS011;9005;48.838;10.112;2024-02-16T01:33:44;1.38;;;0.90;;
17761;SDS011;9005;48.838;10.112;2024-02-16T01:36:11;2.75;;;1.05;;
17761;SDS011;9005;48.838;10.112;2024-02-16T01:38:38;3.47;;;1.67;;
17761;SDS011;9005;48.838;10.112;2024-02-16T01:41:06;2.05;;;1.13;;
17761;SDS011;9005;48.838;10.112;2024-02-16T01:43:34;1.45;;;1.35;;
17761;SDS011;9005;48.838;10.112;2024-02-16T01:46:00;1.75;;;1.02;;
17761;SDS011;9005;48.838;10.112;2024-02-16T01:48:27;2.80;;;1.40;;
17761;SDS011;9005;48.838;10.112;2024-02-16T01:50:55;1.83;;;1.02;;
17761;SDS011;9005;48.838;10.112;2024-02-16T01:53:22;1.63;;;1.20;;
17761;SDS011;9005;48.838;10.112;2024-02-16T01:55:49;1.00;;;0.90;;
17761;SDS011;9005;48.838;10.112;2024-02-16T01:58:18;2.28;;;1.05;;
17761;SDS011;9005;48.838;10.112;2024-02-16T02:00:45;1.38;;;0.80;;
17761;SDS011;9005;48.838;10.112;2024-02-16T02:03:11;1.67;;;1.15;;
17761;SDS011;9005;48.838;10.112;2024-02-16T02:05:43;2.67;;;1.30;;
17761;SDS011;9005;48.838;10.112;2024-02-16T02:08:11;2.78;;;1.30;;
17761;SDS011;9005;48.838;10.112;2024-02-16T02:10:38;1.10;;;0.90;;
17761;SDS011;9005;48.838;10.112;2024-02-16T02:13:05;2.67;;;0.90;;
17761;SDS011;9005;48.838;10.112;2024-02-16T02:15:33;1.65;;;1.30;;
17761;SDS011;9005;48.838;10.112;2024-02-16T02:18:00;1.23;;;1.10;;
17761;SDS011;9005;48.838;10.112;2024-02-16T02:20:27;2.70;;;1.10;;
17761;SDS011;9005;48.838;10.112;2024-02-16T02:22:55;1.20;;;1.10;;
17761;SDS011;9005;48.838;10.112;2024-02-16T02:25:21;2.05;;;0.90;;
17761;SDS011;9005;48.838;10.112;2024-02-16T02:27:48;1.90;;;0.90;;
17761;SDS011;9005;48.838;10.112;2024-02-16T02:30:16;3.10;;;1.20;;
17761;SDS011;9005;48.838;10.112;2024-02-16T02:32:42;2.03;;;1.20;;
17761;SDS011;9005;48.838;10.112;2024-02-16T02:35:09;1.30;;;1.02;;
17761;SDS011;9005;48.838;10.112;2024-02-16T02:37:39;1.65;;;1.30;;
17761;SDS011;9005;48.838;10.112;2024-02-16T02:40:08;1.90;;;1.20;;
17761;SDS011;9005;48.838;10.112;2024-02-16T02:42:35;2.88;;;1.17;;
17761;SDS011;9005;48.838;10.112;2024-02-16T02:45:02;1.35;;;1.20;;
17761;SDS011;9005;48.838;10.112;2024-02-16T02:47:30;2.53;;;1.50;;
17761;SDS011;9005;48.838;10.112;2024-02-16T02:49:58;1.98;;;1.42;;
17761;SDS011;9005;48.838;10.112;2024-02-16T02:52:24;1.48;;;1.17;;
17761;SDS011;9005;48.838;10.112;2024-02-16T02:54:51;1.83;;;1.42;;
17761;SDS011;9005;48.838;10.112;2024-02-16T02:57:19;2.22;;;0.93;;
17761;SDS011;9005;48.838;10.112;2024-02-16T02:59:46;1.92;;;1.20;;
17761;SDS011;9005;48.838;10.112;2024-02-16T03:02:12;4.20;;;1.30;;
17761;SDS011;9005;48.838;10.112;2024-02-16T03:04:39;5.20;;;1.25;;
17761;SDS011;9005;48.838;10.112;2024-02-16T03:07:06;2.20;;;1.38;;
17761;SDS011;9005;48.838;10.112;2024-02-16T03:09:33;1.75;;;1.33;;
17761;SDS011;9005;48.838;10.112;2024-02-16T03:11:59;2.63;;;1.25;;
17761;SDS011;9005;48.838;10.112;2024-02-16T03:14:28;3.33;;;1.55;;
17761;SDS011;9005;48.838;10.112;2024-02-16T03:16:55;2.20;;;1.40;;
17761;SDS011;9005;48.838;10.112;2024-02-16T03:19:21;4.00;;;1.60;;
17761;SDS011;9005;48.838;10.112;2024-02-16T03:21:48;1.27;;;1.02;;
17761;SDS011;9005;48.838;10.112;2024-02-16T03:24:15;1.45;;;1.35;;
17761;SDS011;9005;48.838;10.112;2024-02-16T03:26:42;3.22;;;1.30;;
17761;SDS011;9005;48.838;10.112;2024-02-16T03:29:08;1.55;;;1.30;;
17761;SDS011;9005;48.838;10.112;2024-02-16T03:31:36;1.80;;;1.70;;
17761;SDS011;9005;48.838;10.112;2024-02-16T03:34:03;1.85;;;1.27;;
17761;SDS011;9005;48.838;10.112;2024-02-16T03:36:30;1.98;;;1.27;;
17761;SDS011;9005;48.838;10.112;2024-02-16T03:38:56;2.03;;;1.60;;
17761;SDS011;9005;48.838;10.112;2024-02-16T03:41:23;1.58;;;1.27;;
17761;SDS011;9005;48.838;10.112;2024-02-16T03:43:50;2.25;;;1.50;;
17761;SDS011;9005;48.838;10.112;2024-02-16T03:46:18;5.25;;;1.60;;
17761;SDS011;9005;48.838;10.112;2024-02-16T03:48:46;2.28;;;1.48;;
17761;SDS011;9005;48.838;10.112;2024-02-16T03:51:13;3.17;;;1.20;;
17761;SDS011;9005;48.838;10.112;2024-02-16T03:53:39;5.82;;;1.63;;
17761;SDS011;9005;48.838;10.112;2024-02-16T03:56:06;1.83;;;1.48;;
17761;SDS011;9005;48.838;10.112;2024-02-16T03:58:33;2.08;;;1.40;;
17761;SDS011;9005;48.838;10.112;2024-02-16T04:00:59;1.52;;;1.40;;
17761;SDS011;9005;48.838;10.112;2024-02-16T04:03:26;2.75;;;1.80;;
17761;SDS011;9005;48.838;10.112;2024-02-16T04:05:54;1.98;;;1.70;;
17761;SDS011;9005;48.838;10.112;2024-02-16T04:08:21;4.70;;;1.50;;
17761;SDS011;9005;48.838;10.112;2024-02-16T04:10:48;1.55;;;1.40;;
17761;SDS011;9005;48.838;10.112;2024-02-16T04:13:15;1.60;;;1.40;;
17761;SDS011;9005;48.838;10.112;2024-02-16T04:15:42;2.13;;;1.60;;
17761;SDS011;9005;48.838;10.112;2024-02-16T04:18:08;3.75;;;1.65;;
17761;SDS011;9005;48.838;10.112;2024-02-16T04:20:35;2.60;;;1.38;;
17761;SDS011;9005;48.838;10.112;2024-02-16T04:23:04;2.50;;;1.60;;
17761;SDS011;9005;48.838;10.112;2024-02-16T04:25:31;1.40;;;1.30;;
17761;SDS011;9005;48.838;10.112;2024-02-16T04:27:57;1.55;;;1.40;;
17761;SDS011;9005;48.838;10.112;2024-02-16T04:30:24;1.30;;;1.20;;
17761;SDS011;9005;48.838;10.112;2024-02-16T04:32:51;4.18;;;1.98;;
17761;SDS011;9005;48.838;10.112;2024-02-16T04:35:18;1.40;;;1.30;;
17761;SDS011;9005;48.838;10.112;2024-02-16T04:37:45;1.20;;;0.98;;
17761;SDS011;9005;48.838;10.112;2024-02-16T04:40:13;3.28;;;2.13;;
17761;SDS011;9005;48.838;10.112;2024-02-16T04:42:40;2.88;;;1.63;;
17761;SDS011;9005;48.838;10.112;2024-02-16T04:45:10;4.22;;;2.35;;
17761;SDS011;9005;48.838;10.112;2024-02-16T04:47:37;4.03;;;1.95;;
17761;SDS011;9005;48.838;10.112;2024-02-16T04:50:05;3.13;;;2.47;;
17761;SDS011;9005;48.838;10.112;2024-02-16T04:52:35;2.60;;;1.85;;
17761;SDS011;9005;48.838;10.112;2024-02-16T04:55:02;2.63;;;2.00;;
17761;SDS011;9005;48.838;10.112;2024-02-16T04:57:31;2.60;;;2.35;;
17761;SDS011;9005;48.838;10.112;2024-02-16T04:59:59;3.08;;;2.33;;
17761;SDS011;9005;48.838;10.112;2024-02-16T05:02:25;2.20;;;1.83;;
17761;SDS011;9005;48.838;10.112;2024-02-16T05:04:52;3.22;;;2.78;;
17761;SDS011;9005;48.838;10.112;2024-02-16T05:07:19;4.03;;;2.92;;
17761;SDS011;9005;48.838;10.112;2024-02-16T05:09:46;4.38;;;2.90;;
17761;SDS011;9005;48.838;10.112;2024-02-16T05:12:12;3.78;;;2.95;;
17761;SDS011;9005;48.838;10.112;2024-02-16T05:14:40;3.85;;;2.83;;
17761;SDS011;9005;48.838;10.112;2024-02-16T05:17:07;2.72;;;2.38;;
17761;SDS011;9005;48.838;10.112;2024-02-16T05:19:34;3.17;;;1.95;;
17761;SDS011;9005;48.838;10.112;2024-02-16T05:22:02;3.33;;;2.75;;
17761;SDS011;9005;48.838;10.112;2024-02-16T05:24:28;3.75;;;2.33;;
17761;SDS011;9005;48.838;10.112;2024-02-16T05:26:55;1.33;;;1.02;;
17761;SDS011;9005;48.838;10.112;2024-02-16T05:29:22;3.22;;;1.92;;
17761;SDS011;9005;48.838;10.112;2024-02-16T05:31:51;3.05;;;2.22;;
17761;SDS011;9005;48.838;10.112;2024-02-16T05:34:19;3.35;;;2.28;;
17761;SDS011;9005;48.838;10.112;2024-02-16T05:36:45;2.90;;;2.60;;
17761;SDS011;9005;48.838;10.112;2024-02-16T05:39:12;3.00;;;2.55;;
17761;SDS011;9005;48.838;10.112;2024-02-16T05:41:51;3.45;;;2.70;;
17761;SDS011;9005;48.838;10.112;2024-02-16T05:44:18;3.38;;;2.50;;
17761;SDS011;9005;48.838;10.112;2024-02-16T05:46:45;2.85;;;2.30;;
17761;SDS011;9005;48.838;10.112;2024-02-16T05:49:13;4.32;;;2.58;;
17761;SDS011;9005;48.838;10.112;2024-02-16T05:51:40;4.97;;;2.50;;
17761;SDS011;9005;48.838;10.112;2024-02-16T05:54:07;1.80;;;1.70;;
17761;SDS011;9005;48.838;10.112;2024-02-16T05:56:34;2.90;;;2.60;;
17761;SDS011;9005;48.838;10.112;2024-02-16T05:59:02;3.33;;;2.28;;
17761;SDS011;9005;48.838;10.112;2024-02-16T06:01:28;1.77;;;1.00;;
17761;SDS011;9005;48.838;10.112;2024-02-16T06:03:55;2.88;;;2.25;;
17761;SDS011;9005;48.838;10.112;2024-02-16T06:06:23;2.90;;;2.38;;
17761;SDS011;9005;48.838;10.112;2024-02-16T06:08:50;4.55;;;3.20;;
17761;SDS011;9005;48.838;10.112;2024-02-16T06:11:17;2.72;;;2.53;;
17761;SDS011;9005;48.838;10.112;2024-02-16T06:13:43;3.03;;;2.60;;
17761;SDS011;9005;48.838;10.112;2024-02-16T06:16:10;5.03;;;2.45;;
17761;SDS011;9005;48.838;10.112;2024-02-16T06:18:37;3.33;;;2.35;;
17761;SDS011;9005;48.838;10.112;2024-02-16T06:21:04;2.47;;;2.22;;
17761;SDS011;9005;48.838;10.112;2024-02-16T06:23:32;3.78;;;3.00;;
17761;SDS011;9005;48.838;10.112;2024-02-16T06:25:58;4.53;;;3.00;;
17761;SDS011;9005;48.838;10.112;2024-02-16T06:28:25;3.17;;;2.88;;
17761;SDS011;9005;48.838;10.112;2024-02-16T06:30:52;3.25;;;1.55;;
17761;SDS011;9005;48.838;10.112;2024-02-16T06:33:18;3.28;;;2.60;;
17761;SDS011;9005;48.838;10.112;2024-02-16T06:35:46;2.10;;;1.88;;
17761;SDS011;9005;48.838;10.112;2024-02-16T06:38:15;3.15;;;2.55;;
17761;SDS011;9005;48.838;10.112;2024-02-16T06:40:43;2.65;;;2.42;;
17761;SDS011;9005;48.838;10.112;2024-02-16T06:43:10;1.73;;;1.38;;
17761;SDS011;9005;48.838;10.112;2024-02-16T06:45:36;2.90;;;2.63;;
17761;SDS011;9005;48.838;10.112;2024-02-16T06:48:03;3.90;;;2.20;;
17761;SDS011;9005;48.838;10.112;2024-02-16T06:50:30;3.00;;;2.55;;
17761;SDS011;9005;48.838;10.112;2024-02-16T06:52:57;3.05;;;2.47;;
17761;SDS011;9005;48.838;10.112;2024-02-16T06:55:24;3.30;;;2.67;;
17761;SDS011;9005;48.838;10.112;2024-02-16T06:57:52;3.72;;;2.83;;
17761;SDS011;9005;48.838;10.112;2024-02-16T07:00:19;3.92;;;3.53;;
17761;SDS011;9005;48.838;10.112;2024-02-16T07:02:46;2.85;;;2.22;;
17761;SDS011;9005;48.838;10.112;2024-02-16T07:05:13;3.30;;;2.65;;
17761;SDS011;9005;48.838;10.112;2024-02-16T07:07:40;5.32;;;2.92;;
17761;SDS011;9005;48.838;10.112;2024-02-16T07:10:07;3.00;;;2.70;;
17761;SDS011;9005;48.838;10.112;2024-02-16T07:12:38;4.68;;;3.22;;
17761;SDS011;9005;48.838;10.112;2024-02-16T07:15:07;3.67;;;2.08;;
17761;SDS011;9005;48.838;10.112;2024-02-16T07:17:34;2.60;;;2.05;;
17761;SDS011;9005;48.838;10.112;2024-02-16T07:20:01;5.32;;;2.53;;
17761;SDS011;9005;48.838;10.112;2024-02-16T07:22:29;4.97;;;3.25;;
17761;SDS011;9005;48.838;10.112;2024-02-16T07:24:56;3.22;;;2.85;;
17761;SDS011;9005;48.838;10.112;2024-02-16T07:27:25;2.97;;;2.67;;
17761;SDS011;9005;48.838;10.112;2024-02-16T07:29:51;3.67;;;2.03;;
17761;SDS011;9005;48.838;10.112;2024-02-16T07:32:20;3.72;;;2.90;;
17761;SDS011;9005;48.838;10.112;2024-02-16T07:34:46;4.90;;;2.70;;
17761;SDS011;9005;48.838;10.112;2024-02-16T07:37:14;2.03;;;1.70;;
17761;SDS011;9005;48.838;10.112;2024-02-16T07:39:40;3.15;;;2.60;;
17761;SDS011;9005;48.838;10.112;2024-02-16T07:42:07;7.63;;;2.83;;
17761;SDS011;9005;48.838;10.112;2024-02-16T07:44:34;13.75;;;5.15;;
17761;SDS011;9005;48.838;10.112;2024-02-16T07:47:01;13.98;;;5.53;;
17761;SDS011;9005;48.838;10.112;2024-02-16T07:49:29;11.18;;;4.85;;
17761;SDS011;9005;48.838;10.112;2024-02-16T07:51:56;12.25;;;5.20;;
17761;SDS011;9005;48.838;10.112;2024-02-16T07:54:23;8.27;;;5.05;;
17761;SDS011;9005;48.838;10.112;2024-02-16T07:56:50;5.55;;;3.67;;
17761;SDS011;9005;48.838;10.112;2024-02-16T07:59:17;4.57;;;3.00;;
17761;SDS011;9005;48.838;10.112;2024-02-16T08:01:44;9.43;;;3.28;;
17761;SDS011;9005;48.838;10.112;2024-02-16T08:04:10;6.55;;;2.97;;
17761;SDS011;9005;48.838;10.112;2024-02-16T08:06:38;4.75;;;3.65;;
17761;SDS011;9005;48.838;10.112;2024-02-16T08:09:05;4.25;;;3.28;;
17761;SDS011;9005;48.838;10.112;2024-02-16T08:11:32;4.70;;;3.45;;
17761;SDS011;9005;48.838;10.112;2024-02-16T08:13:59;3.83;;;2.90;;
17761;SDS011;9005;48.838;10.112;2024-02-16T08:16:26;4.53;;;3.25;;
17761;SDS011;9005;48.838;10.112;2024-02-16T08:18:53;5.57;;;3.38;;
17761;SDS011;9005;48.838;10.112;2024-02-16T08:21:19;6.05;;;3.78;;
17761;SDS011;9005;48.838;10.112;2024-02-16T08:23:48;4.15;;;3.75;;
17761;SDS011;9005;48.838;10.112;2024-02-16T08:26:14;4.28;;;3.55;;
17761;SDS011;9005;48.838;10.112;2024-02-16T08:28:43;6.15;;;3.90;;
17761;SDS011;9005;48.838;10.112;2024-02-16T08:31:10;3.10;;;2.55;;
17761;SDS011;9005;48.838;10.112;2024-02-16T08:33:42;4.03;;;3.20;;
17761;SDS011;9005;48.838;10.112;2024-02-16T08:36:10;3.90;;;3.55;;
17761;SDS011;9005;48.838;10.112;2024-02-16T08:38:37;4.93;;;3.42;;
17761;SDS011;9005;48.838;10.112;2024-02-16T08:41:05;4.38;;;3.40;;
17761;SDS011;9005;48.838;10.112;2024-02-16T08:43:31;3.88;;;2.90;;
17761;SDS011;9005;48.838;10.112;2024-02-16T08:45:58;4.30;;;3.40;;
17761;SDS011;9005;48.838;10.112;2024-02-16T08:48:25;3.90;;;3.28;;
17761;SDS011;9005;48.838;10.112;2024-02-16T08:50:52;3.22;;;2.92;;
17761;SDS011;9005;48.838;10.112;2024-02-16T08:53:18;3.40;;;3.10;;
17761;SDS011;9005;48.838;10.112;2024-02-16T08:55:45;3.40;;;3.10;;
17761;SDS011;9005;48.838;10.112;2024-02-16T08:58:13;3.80;;;3.42;;
17761;SDS011;9005;48.838;10.112;2024-02-16T09:00:40;4.55;;;2.97;;
17761;SDS011;9005;48.838;10.112;2024-02-16T09:03:06;3.58;;;3.22;;
17761;SDS011;9005;48.838;10.112;2024-02-16T09:05:33;3.30;;;3.00;;
17761;SDS011;9005;48.838;10.112;2024-02-16T09:08:00;4.30;;;3.80;;
17761;SDS011;9005;48.838;10.112;2024-02-16T09:10:28;3.72;;;2.95;;
17761;SDS011;9005;48.838;10.112;2024-02-16T09:12:55;2.70;;;2.50;;
17761;SDS011;9005;48.838;10.112;2024-02-16T09:15:23;3.65;;;2.88;;
17761;SDS011;9005;48.838;10.112;2024-02-16T09:17:49;3.65;;;3.35;;
17761;SDS011;9005;48.838;10.112;2024-02-16T09:20:16;3.55;;;2.53;;
17761;SDS011;9005;48.838;10.112;2024-02-16T09:22:47;2.90;;;2.60;;
17761;SDS011;9005;48.838;10.112;2024-02-16T09:25:14;2.42;;;2.20;;
17761;SDS011;9005;48.838;10.112;2024-02-16T09:27:41;2.40;;;2.20;;
17761;SDS011;9005;48.838;10.112;2024-02-16T09:30:10;3.20;;;1.80;;
17761;SDS011;9005;48.838;10.112;2024-02-16T09:32:40;3.28;;;2.15;;
17761;SDS011;9005;48.838;10.112;2024-02-16T09:35:07;3.22;;;2.45;;
17761;SDS011;9005;48.838;10.112;2024-02-16T09:37:34;5.82;;;3.00;;
17761;SDS011;9005;48.838;10.112;2024-02-16T09:40:02;4.38;;;2.65;;
17761;SDS011;9005;48.838;10.112;2024-02-16T09:42:30;3.58;;;2.33;;
17761;SDS011;9005;48.838;10.112;2024-02-16T09:44:58;5.07;;;2.60;;
17761;SDS011;9005;48.838;10.112;2024-02-16T09:47:25;3.20;;;2.60;;
17761;SDS011;9005;48.838;10.112;2024-02-16T09:49:59;2.25;;;1.90;;
17761;SDS011;9005;48.838;10.112;2024-02-16T09:52:26;2.70;;;2.22;;
17761;SDS011;9005;48.838;10.112;2024-02-16T09:54:53;2.90;;;2.20;;
17761;SDS011;9005;48.838;10.112;2024-02-16T09:57:20;2.60;;;1.95;;
17761;SDS011;9005;48.838;10.112;2024-02-16T09:59:47;2.03;;;1.83;;
17761;SDS011;9005;48.838;10.112;2024-02-16T10:02:13;1.65;;;1.40;;
17761;SDS011;9005;48.838;10.112;2024-02-16T10:04:40;2.65;;;1.60;;
17761;SDS011;9005;48.838;10.112;2024-02-16T10:07:08;1.85;;;1.65;;
17761;SDS011;9005;48.838;10.112;2024-02-16T10:09:35;2.38;;;1.35;;
17761;SDS011;9005;48.838;10.112;2024-02-16T10:12:02;1.77;;;1.35;;
17761;SDS011;9005;48.838;10.112;2024-02-16T10:14:30;1.38;;;1.23;;
17761;SDS011;9005;48.838;10.112;2024-02-16T10:17:00;2.22;;;1.15;;
17761;SDS011;9005;48.838;10.112;2024-02-16T10:19:27;1.98;;;1.00;;
17761;SDS011;9005;48.838;10.112;2024-02-16T10:22:04;1.30;;;1.10;;
17761;SDS011;9005;48.838;10.112;2024-02-16T10:24:34;2.97;;;1.33;;
17761;SDS011;9005;48.838;10.112;2024-02-16T10:27:04;1.00;;;0.73;;
17761;SDS011;9005;48.838;10.112;2024-02-16T10:29:32;2.05;;;0.85;;
17761;SDS011;9005;48.838;10.112;2024-02-16T10:32:00;0.80;;;0.80;;
17761;SDS011;9005;48.838;10.112;2024-02-16T10:34:26;2.58;;;0.95;;
17761;SDS011;9005;48.838;10.112;2024-02-16T10:36:55;2.05;;;1.30;;
17761;SDS011;9005;48.838;10.112;2024-02-16T10:39:25;0.70;;;0.70;;
17761;SDS011;9005;48.838;10.112;2024-02-16T10:41:53;1.05;;;0.90;;
17761;SDS011;9005;48.838;10.112;2024-02-16T10:44:22;1.92;;;1.15;;
17761;SDS011;9005;48.838;10.112;2024-02-16T10:46:49;1.05;;;0.85;;
17761;SDS011;9005;48.838;10.112;2024-02-16T10:49:16;1.00;;;0.90;;
17761;SDS011;9005;48.838;10.112;2024-02-16T10:51:46;1.00;;;0.75;;
17761;SDS011;9005;48.838;10.112;2024-02-16T10:54:17;2.85;;;0.75;;
17761;SDS011;9005;48.838;10.112;2024-02-16T10:56:48;2.05;;;0.93;;
17761;SDS011;9005;48.838;10.112;2024-02-16T10:59:16;0.60;;;0.60;;
17761;SDS011;9005;48.838;10.112;2024-02-16T11:01:43;1.00;;;0.88;;
17761;SDS011;9005;48.838;10.112;2024-02-16T11:04:11;0.95;;;0.77;;
17761;SDS011;9005;48.838;10.112;2024-02-16T11:06:45;1.13;;;0.60;;
17761;SDS011;9005;48.838;10.112;2024-02-16T11:09:22;1.00;;;0.85;;
17761;SDS011;9005;48.838;10.112;2024-02-16T11:11:52;0.68;;;0.60;;
17761;SDS011;9005;48.838;10.112;2024-02-16T11:14:20;1.73;;;0.90;;
17761;SDS011;9005;48.838;10.112;2024-02-16T11:16:48;1.35;;;0.77;;
17761;SDS011;9005;48.838;10.112;2024-02-16T11:19:15;1.80;;;1.08;;
17761;SDS011;9005;48.838;10.112;2024-02-16T11:21:54;0.73;;;0.68;;
17761;SDS011;9005;48.838;10.112;2024-02-16T11:24:29;1.15;;;0.70;;
17761;SDS011;9005;48.838;10.112;2024-02-16T11:27:01;1.85;;;0.75;;
17761;SDS011;9005;48.838;10.112;2024-02-16T11:29:34;0.68;;;0.68;;
17761;SDS011;9005;48.838;10.112;2024-02-16T11:32:01;1.40;;;0.90;;
17761;SDS011;9005;48.838;10.112;2024-02-16T11:34:29;1.08;;;0.93;;
17761;SDS011;9005;48.838;10.112;2024-02-16T11:36:56;1.33;;;0.88;;
17761;SDS011;9005;48.838;10.112;2024-02-16T11:39:24;1.55;;;0.70;;
17761;SDS011;9005;48.838;10.112;2024-02-16T11:42:01;0.88;;;0.70;;
17761;SDS011;9005;48.838;10.112;2024-02-16T11:44:29;1.58;;;1.13;;
17761;SDS011;9005;48.838;10.112;2024-02-16T11:46:58;1.60;;;1.05;;
17761;SDS011;9005;48.838;10.112;2024-02-16T11:49:25;1.40;;;1.17;;
17761;SDS011;9005;48.838;10.112;2024-02-16T11:51:52;1.10;;;1.00;;
17761;SDS011;9005;48.838;10.112;2024-02-16T11:54:19;1.27;;;1.10;;
17761;SDS011;9005;48.838;10.112;2024-02-16T11:56:46;1.25;;;0.80;;
17761;SDS011;9005;48.838;10.112;2024-02-16T11:59:16;1.00;;;0.90;;
17761;SDS011;9005;48.838;10.112;2024-02-16T12:01:50;2.42;;;1.35;;
17761;SDS011;9005;48.838;10.112;2024-02-16T12:04:25;1.63;;;1.02;;
17761;SDS011;9005;48.838;10.112;2024-02-16T12:06:56;1.35;;;0.80;;
17761;SDS011;9005;48.838;10.112;2024-02-16T12:09:23;1.85;;;0.82;;
17761;SDS011;9005;48.838;10.112;2024-02-16T12:11:50;1.50;;;1.00;;
17761;SDS011;9005;48.838;10.112;2024-02-16T12:14:18;2.72;;;1.05;;
17761;SDS011;9005;48.838;10.112;2024-02-16T12:16:47;1.70;;;1.05;;
17761;SDS011;9005;48.838;10.112;2024-02-16T12:19:14;1.00;;;0.70;;
17761;SDS011;9005;48.838;10.112;2024-02-16T12:21:43;1.85;;;0.98;;
17761;SDS011;9005;48.838;10.112;2024-02-16T12:24:09;3.13;;;1.40;;
17761;SDS011;9005;48.838;10.112;2024-02-16T12:26:36;2.67;;;1.20;;
17761;SDS011;9005;48.838;10.112;2024-02-16T12:29:04;2.22;;;1.10;;
17761;SDS011;9005;48.838;10.112;2024-02-16T12:31:31;1.05;;;0.93;;
17761;SDS011;9005;48.838;10.112;2024-02-16T12:33:58;3.72;;;1.27;;
17761;SDS011;9005;48.838;10.112;2024-02-16T12:36:25;1.33;;;0.80;;
17761;SDS011;9005;48.838;10.112;2024-02-16T12:38:54;2.17;;;0.90;;
17761;SDS011;9005;48.838;10.112;2024-02-16T12:41:20;6.72;;;1.83;;
17761;SDS011;9005;48.838;10.112;2024-02-16T12:43:47;1.45;;;0.82;;
17761;SDS011;9005;48.838;10.112;2024-02-16T12:46:14;2.08;;;1.08;;
17761;SDS011;9005;48.838;10.112;2024-02-16T12:48:40;1.13;;;0.90;;
17761;SDS011;9005;48.838;10.112;2024-02-16T12:51:07;2.00;;;0.80;;
17761;SDS011;9005;48.838;10.112;2024-02-16T12:53:36;2.83;;;1.08;;
17761;SDS011;9005;48.838;10.112;2024-02-16T12:56:07;1.77;;;1.00;;
17761;SDS011;9005;48.838;10.112;2024-02-16T12:58:34;1.27;;;1.05;;
17761;SDS011;9005;48.838;10.112;2024-02-16T13:01:01;1.42;;;0.90;;
17761;SDS011;9005;48.838;10.112;2024-02-16T13:03:31;1.25;;;0.90;;
17761;SDS011;9005;48.838;10.112;2024-02-16T13:05:59;1.55;;;1.20;;
17761;SDS011;9005;48.838;10.112;2024-02-16T13:08:26;1.08;;;0.98;;
17761;SDS011;9005;48.838;10.112;2024-02-16T13:10:53;2.65;;;1.20;;
17761;SDS011;9005;48.838;10.112;2024-02-16T13:13:21;2.15;;;0.77;;
17761;SDS011;9005;48.838;10.112;2024-02-16T13:15:47;4.25;;;1.13;;
17761;SDS011;9005;48.838;10.112;2024-02-16T13:18:14;1.85;;;0.93;;
17761;SDS011;9005;48.838;10.112;2024-02-16T13:20:42;4.00;;;1.20;;
17761;SDS011;9005;48.838;10.112;2024-02-16T13:23:09;1.48;;;1.20;;
17761;SDS011;9005;48.838;10.112;2024-02-16T13:25:36;1.95;;;1.20;;
17761;SDS011;9005;48.838;10.112;2024-02-16T13:28:03;1.60;;;1.08;;
17761;SDS011;9005;48.838;10.112;2024-02-16T13:30:31;1.33;;;0.98;;
17761;SDS011;9005;48.838;10.112;2024-02-16T13:32:58;2.33;;;1.27;;
17761;SDS011;9005;48.838;10.112;2024-02-16T13:35:25;2.65;;;1.38;;
17761;SDS011;9005;48.838;10.112;2024-02-16T13:37:53;1.70;;;1.20;;
17761;SDS011;9005;48.838;10.112;2024-02-16T13:40:20;2.58;;;1.50;;
17761;SDS011;9005;48.838;10.112;2024-02-16T13:42:47;2.25;;;1.05;;
17761;SDS011;9005;48.838;10.112;2024-02-16T13:45:14;1.85;;;1.08;;
17761;SDS011;9005;48.838;10.112;2024-02-16T13:47:42;2.42;;;1.30;;
17761;SDS011;9005;48.838;10.112;2024-02-16T13:50:09;3.22;;;1.55;;
17761;SDS011;9005;48.838;10.112;2024-02-16T13:52:36;1.98;;;1.00;;
17761;SDS011;9005;48.838;10.112;2024-02-16T13:55:03;2.83;;;1.13;;
17761;SDS011;9005;48.838;10.112;2024-02-16T13:57:31;3.40;;;1.08;;
17761;SDS011;9005;48.838;10.112;2024-02-16T13:59:58;1.58;;;0.93;;
17761;SDS011;9005;48.838;10.112;2024-02-16T14:02:24;4.55;;;1.10;;
17761;SDS011;9005;48.838;10.112;2024-02-16T14:04:52;1.58;;;0.98;;
17761;SDS011;9005;48.838;10.112;2024-02-16T14:07:21;2.25;;;0.90;;
17761;SDS011;9005;48.838;10.112;2024-02-16T14:09:48;3.25;;;1.17;;
17761;SDS011;9005;48.838;10.112;2024-02-16T14:25:30;2.63;;;1.10;;
17761;SDS011;9005;48.838;10.112;2024-02-16T14:27:57;2.38;;;1.38;;
17761;SDS011;9005;48.838;10.112;2024-02-16T14:30:24;3.08;;;1.40;;
17761;SDS011;9005;48.838;10.112;2024-02-16T14:32:50;3.85;;;1.10;;
17761;SDS011;9005;48.838;10.112;2024-02-16T14:35:17;1.33;;;0.80;;
17761;SDS011;9005;48.838;10.112;2024-02-16T14:37:44;3.05;;;1.50;;
17761;SDS011;9005;48.838;10.112;2024-02-16T14:40:11;3.13;;;1.08;;
17761;SDS011;9005;48.838;10.112;2024-02-16T14:42:39;3.63;;;1.10;;
17761;SDS011;9005;48.838;10.112;2024-02-16T14:45:07;4.15;;;1.23;;
17761;SDS011;9005;48.838;10.112;2024-02-16T14:47:35;2.03;;;1.17;;
17761;SDS011;9005;48.838;10.112;2024-02-16T14:50:02;3.33;;;1.20;;
17761;SDS011;9005;48.838;10.112;2024-02-16T14:52:29;1.85;;;1.13;;
17761;SDS011;9005;48.838;10.112;2024-02-16T14:54:56;1.15;;;0.95;;
17761;SDS011;9005;48.838;10.112;2024-02-16T14:57:24;2.83;;;1.27;;
17761;SDS011;9005;48.838;10.112;2024-02-16T14:59:52;2.85;;;1.65;;
17761;SDS011;9005;48.838;10.112;2024-02-16T15:02:21;1.90;;;1.00;;